Time;durP1;ratioP1;P1;durP2;ratioP2;P2;SDS_P1;SDS_P2;PMS_P1;PMS_P2;Temp;Humidity;BMP_temperature;BMP_pressure;BME280_temperature;BME280_humidity;BME280_pressure;Samples;Min_cycle;Max_cycle;Signal;HPM_P1;HPM_P2
2022/04/06 00:00:46;;;;;;;15.45;10.63;;;8.20;95.90;;;;;;5053985;28;20039;-81
2022/04/06 00:03:12;;;;;;;15.10;10.15;;;8.20;95.80;;;;;;5052997;28;20025;-81
2022/04/06 00:05:38;;;;;;;17.98;9.05;;;8.20;95.80;;;;;;5052341;28;20033;-82
2022/04/06 00:08:04;;;;;;;15.23;10.65;;;8.20;95.90;;;;;;5045638;28;20368;-82
2022/04/06 00:10:31;;;;;;;15.40;10.68;;;8.20;96.10;;;;;;5071689;28;20402;-81
2022/04/06 00:12:57;;;;;;;14.82;10.52;;;8.10;96.10;;;;;;5072605;28;20035;-82
2022/04/06 00:15:23;;;;;;;18.73;10.18;;;8.10;96.20;;;;;;5051341;28;20031;-82
2022/04/06 00:17:49;;;;;;;14.73;10.20;;;8.10;96.30;;;;;;5071358;28;20029;-83
2022/04/06 00:20:15;;;;;;;18.15;11.05;;;8.10;96.30;;;;;;5052426;28;20188;-82
2022/04/06 00:22:41;;;;;;;17.55;10.32;;;8.10;96.50;;;;;;5072838;28;20025;-82
2022/04/06 00:25:07;;;;;;;15.55;10.05;;;8.10;96.50;;;;;;5056387;28;20394;-82
2022/04/06 00:27:33;;;;;;;20.92;11.50;;;8.10;96.50;;;;;;5076633;28;20046;-82
2022/04/06 00:29:59;;;;;;;19.65;11.88;;;8.10;96.60;;;;;;5057838;28;20111;-82
2022/04/06 00:32:24;;;;;;;18.15;12.73;;;8.10;96.60;;;;;;5049029;28;20096;-82
2022/04/06 00:37:34;;;;;;;17.30;11.18;;;8.10;96.60;;;;;;5075297;28;20031;-81
2022/04/06 00:40:00;;;;;;;19.77;11.85;;;8.10;96.70;;;;;;5057488;28;20419;-82
2022/04/06 00:42:25;;;;;;;18.63;11.65;;;8.10;96.70;;;;;;5047104;28;20029;-82
2022/04/06 00:44:51;;;;;;;19.95;13.27;;;8.10;96.70;;;;;;5068412;28;20032;-82
2022/04/06 00:47:16;;;;;;;22.08;13.10;;;8.10;96.60;;;;;;5057914;28;20115;-82
2022/04/06 00:49:42;;;;;;;26.25;14.27;;;8.10;96.70;;;;;;5067456;28;20465;-81
2022/04/06 00:52:08;;;;;;;25.35;15.63;;;8.10;96.70;;;;;;5057234;28;20365;-82
2022/04/06 00:54:35;;;;;;;24.40;14.15;;;8.10;96.70;;;;;;5056052;28;20028;-82
2022/04/06 00:57:00;;;;;;;26.70;14.48;;;8.10;96.70;;;;;;5075268;28;20032;-82
2022/04/06 00:59:29;;;;;;;21.33;13.00;;;8.10;96.70;;;;;;5074388;28;20104;-82
2022/04/06 01:01:55;;;;;;;24.90;13.68;;;8.10;96.60;;;;;;5057589;28;20043;-82
2022/04/06 01:04:21;;;;;;;18.67;11.77;;;8.10;96.60;;;;;;5072323;28;20059;-82
2022/04/06 01:06:51;;;;;;;17.40;11.13;;;8.10;96.60;;;;;;5074507;28;20032;-82
2022/04/06 01:09:19;;;;;;;16.83;10.60;;;8.00;96.60;;;;;;5075182;28;20040;-82
2022/04/06 01:11:46;;;;;;;21.25;11.77;;;8.10;96.60;;;;;;5075634;28;20037;-82
2022/04/06 01:14:12;;;;;;;20.52;11.32;;;8.00;96.60;;;;;;5073682;28;20020;-82
2022/04/06 01:16:38;;;;;;;18.45;11.63;;;8.00;96.50;;;;;;5073246;28;20028;-82
2022/04/06 01:19:04;;;;;;;17.77;11.18;;;8.00;96.50;;;;;;5055971;28;20024;-82
2022/04/06 01:21:30;;;;;;;20.60;11.57;;;8.10;96.40;;;;;;5055750;28;20020;-82
2022/04/06 01:23:56;;;;;;;23.48;10.40;;;8.10;96.40;;;;;;5052344;28;20081;-82
2022/04/06 01:26:21;;;;;;;18.90;10.60;;;8.10;96.30;;;;;;5057314;28;20036;-82
2022/04/06 01:28:47;;;;;;;23.23;11.38;;;8.00;96.30;;;;;;5057279;28;20092;-82
2022/04/06 01:31:12;;;;;;;20.13;10.73;;;8.10;96.20;;;;;;5045107;28;20028;-82
2022/04/06 01:33:38;;;;;;;17.85;10.65;;;8.00;96.20;;;;;;5066164;28;20116;-82
2022/04/06 01:36:04;;;;;;;15.55;11.32;;;8.00;96.20;;;;;;5058758;28;20456;-82
2022/04/06 01:38:29;;;;;;;20.02;10.63;;;8.00;96.20;;;;;;5072473;28;20031;-82
2022/04/06 01:40:55;;;;;;;19.27;10.38;;;8.00;96.10;;;;;;5071813;28;20047;-81
2022/04/06 01:43:21;;;;;;;16.23;9.95;;;8.00;96.00;;;;;;5068689;28;20077;-82
2022/04/06 01:45:47;;;;;;;19.10;10.98;;;8.00;96.00;;;;;;5071504;28;20033;-82
2022/04/06 01:48:15;;;;;;;15.57;10.43;;;7.90;96.10;;;;;;5072167;28;20033;-82
2022/04/06 01:53:26;;;;;;;17.70;10.93;;;7.90;96.00;;;;;;5074455;28;20032;-82
2022/04/06 01:55:52;;;;;;;16.25;10.57;;;7.90;96.00;;;;;;5063066;28;20025;-82
2022/04/06 01:58:17;;;;;;;15.75;10.73;;;7.90;96.00;;;;;;5070898;28;20031;-82
2022/04/06 02:00:43;;;;;;;16.90;11.10;;;7.90;96.00;;;;;;5073230;28;20074;-81
2022/04/06 02:03:08;;;;;;;20.00;11.43;;;7.90;96.00;;;;;;5061109;28;20032;-82
2022/04/06 02:05:35;;;;;;;18.23;10.77;;;7.80;96.10;;;;;;5070214;28;20025;-82
2022/04/06 02:08:01;;;;;;;16.80;11.45;;;7.80;96.10;;;;;;5071833;28;20502;-82
2022/04/06 02:10:27;;;;;;;18.73;10.93;;;7.80;96.10;;;;;;5073725;28;20032;-82
2022/04/06 02:12:56;;;;;;;22.67;12.45;;;7.80;96.10;;;;;;5072408;28;20479;-82
2022/04/06 02:15:23;;;;;;;19.40;11.63;;;7.80;96.10;;;;;;5063218;28;20029;-82
2022/04/06 02:17:49;;;;;;;20.95;12.60;;;7.80;96.20;;;;;;5070245;28;20036;-82
2022/04/06 02:20:16;;;;;;;21.80;13.88;;;7.80;96.20;;;;;;5070568;28;20616;-82
2022/04/06 02:22:42;;;;;;;16.25;11.50;;;7.80;96.20;;;;;;5070413;28;20028;-82
2022/04/06 02:25:09;;;;;;;25.10;14.05;;;7.80;96.20;;;;;;5070387;28;20024;-82
2022/04/06 02:27:42;;;;;;;24.50;13.82;;;7.80;96.30;;;;;;5072387;28;20043;-82
2022/04/06 02:30:09;;;;;;;21.13;13.38;;;7.80;96.20;;;;;;5072717;28;20023;-82
2022/04/06 02:32:35;;;;;;;25.20;13.65;;;7.80;96.20;;;;;;5071137;28;20025;-82
2022/04/06 02:35:01;;;;;;;23.90;13.70;;;7.80;96.20;;;;;;5070509;28;20032;-82
2022/04/06 02:37:27;;;;;;;25.73;15.02;;;7.80;96.20;;;;;;5054901;28;20029;-82
2022/04/06 02:39:52;;;;;;;21.95;13.85;;;7.80;96.20;;;;;;5059669;28;20032;-82
2022/04/06 02:42:18;;;;;;;28.05;14.27;;;7.80;96.20;;;;;;5053764;28;20480;-81
2022/04/06 02:44:43;;;;;;;21.88;12.95;;;7.80;96.20;;;;;;5054888;28;20493;-82
2022/04/06 02:47:09;;;;;;;23.83;15.40;;;7.80;96.20;;;;;;5053887;28;20036;-82
2022/04/06 02:49:34;;;;;;;29.05;15.60;;;7.80;96.10;;;;;;5033143;28;20439;-81
2022/04/06 02:52:00;;;;;;;29.42;16.58;;;7.80;96.10;;;;;;5050895;28;20021;-82
2022/04/06 02:54:25;;;;;;;32.47;16.13;;;7.80;96.10;;;;;;5044162;28;20025;-82
2022/04/06 02:56:51;;;;;;;28.75;16.60;;;7.80;96.10;;;;;;5055118;28;20029;-81
2022/04/06 02:59:16;;;;;;;33.47;18.80;;;7.80;96.10;;;;;;5072422;28;20039;-81
2022/04/06 03:01:42;;;;;;;32.58;18.95;;;7.80;96.00;;;;;;5067147;28;20063;-82
2022/04/06 03:04:07;;;;;;;37.97;18.08;;;7.80;96.00;;;;;;5041650;28;20043;-82
2022/04/06 03:06:33;;;;;;;29.45;18.00;;;7.80;96.10;;;;;;5040619;28;20483;-81
2022/04/06 03:08:58;;;;;;;40.47;20.38;;;7.90;96.10;;;;;;5072445;28;20503;-81
2022/04/06 03:11:24;;;;;;;37.67;19.90;;;7.80;96.10;;;;;;5055140;28;20028;-81
2022/04/06 03:13:51;;;;;;;36.78;17.70;;;7.80;96.10;;;;;;5055282;28;20396;-82
2022/04/06 03:16:16;;;;;;;31.92;17.85;;;7.80;96.10;;;;;;5037559;28;20086;-81
2022/04/06 03:18:42;;;;;;;35.72;18.65;;;7.80;96.10;;;;;;5063380;28;20033;-82
2022/04/06 03:21:07;;;;;;;38.38;18.90;;;7.80;96.10;;;;;;5053162;28;20476;-81
2022/04/06 03:23:33;;;;;;;30.67;17.75;;;7.90;96.10;;;;;;5046184;28;20032;-81
2022/04/06 03:25:59;;;;;;;36.08;20.23;;;7.80;96.00;;;;;;5054281;28;20036;-82
2022/04/06 03:28:24;;;;;;;37.28;19.02;;;7.80;96.00;;;;;;5054294;28;20077;-82
2022/04/06 03:30:50;;;;;;;38.80;21.10;;;7.80;96.00;;;;;;5054141;28;20029;-82
2022/04/06 03:33:15;;;;;;;33.10;20.13;;;7.90;96.00;;;;;;5052320;28;20028;-82
2022/04/06 03:35:41;;;;;;;38.22;20.35;;;7.90;96.00;;;;;;5066538;28;20051;-81
2022/04/06 03:38:06;;;;;;;39.33;20.95;;;7.90;96.00;;;;;;5053804;28;20021;-81
2022/04/06 03:40:32;;;;;;;37.42;21.83;;;7.90;96.00;;;;;;5069624;28;20029;-81
2022/04/06 03:42:57;;;;;;;43.72;21.88;;;7.90;96.00;;;;;;5072139;28;20025;-82
2022/04/06 03:45:24;;;;;;;41.58;23.13;;;7.90;96.10;;;;;;5046453;28;20429;-82
2022/04/06 03:47:49;;;;;;;39.33;23.95;;;7.90;96.10;;;;;;5053702;28;20037;-81
2022/04/06 03:50:15;;;;;;;43.28;23.45;;;8.00;96.10;;;;;;5052205;28;20070;-82
2022/04/06 03:52:41;;;;;;;42.60;23.95;;;7.90;96.20;;;;;;5054133;28;20466;-82
2022/04/06 03:55:09;;;;;;;37.60;23.85;;;7.90;96.20;;;;;;5053764;28;20039;-82
2022/04/06 03:57:35;;;;;;;43.60;25.50;;;8.00;96.30;;;;;;5052897;28;20025;-82
2022/04/06 04:00:04;;;;;;;48.30;26.15;;;8.00;96.30;;;;;;5055232;28;20479;-82
2022/04/06 04:02:30;;;;;;;46.70;24.33;;;8.00;96.30;;;;;;5057719;28;20071;-81
2022/04/06 04:04:55;;;;;;;49.95;27.98;;;8.00;96.40;;;;;;5056130;28;20127;-81
2022/04/06 04:07:22;;;;;;;46.30;25.80;;;8.00;96.40;;;;;;5052013;28;20127;-81
2022/04/06 04:09:49;;;;;;;52.28;28.10;;;7.90;96.40;;;;;;5058368;28;20111;-82
2022/04/06 04:12:15;;;;;;;45.70;25.08;;;8.00;96.50;;;;;;5057772;28;20084;-81
2022/04/06 04:14:40;;;;;;;45.25;27.25;;;8.00;96.50;;;;;;5057085;28;20124;-81
2022/04/06 04:17:06;;;;;;;56.33;28.02;;;8.00;96.50;;;;;;5074279;28;20617;-81
2022/04/06 04:19:32;;;;;;;52.30;28.80;;;8.10;96.40;;;;;;5055172;28;20032;-82
2022/04/06 04:21:57;;;;;;;52.65;30.52;;;8.00;96.40;;;;;;5057404;28;20081;-82
2022/04/06 04:24:23;;;;;;;49.42;28.35;;;8.00;96.40;;;;;;5050603;28;20028;-82
2022/04/06 04:26:49;;;;;;;55.40;29.05;;;8.00;96.40;;;;;;5057766;28;20407;-83
2022/04/06 04:29:14;;;;;;;53.35;30.77;;;8.00;96.40;;;;;;5075183;28;20031;-81
2022/04/06 04:31:40;;;;;;;57.03;29.25;;;8.00;96.30;;;;;;5074988;28;20032;-81
2022/04/06 04:34:07;;;;;;;59.05;30.95;;;8.00;96.40;;;;;;5073684;28;20028;-82
2022/04/06 04:36:32;;;;;;;46.38;27.38;;;8.00;96.30;;;;;;5074537;28;20411;-82
2022/04/06 04:38:58;;;;;;;62.70;29.63;;;8.00;96.40;;;;;;5076292;28;20031;-82
2022/04/06 04:41:24;;;;;;;53.25;28.92;;;8.00;96.30;;;;;;5065988;28;20361;-82
2022/04/06 04:43:50;;;;;;;61.40;30.48;;;8.00;96.30;;;;;;5055530;28;20075;-82
2022/04/06 04:46:17;;;;;;;60.40;31.23;;;8.00;96.30;;;;;;5056940;28;20036;-82
2022/04/06 04:48:42;;;;;;;60.92;29.80;;;8.00;96.30;;;;;;5056792;28;20025;-82
2022/04/06 04:51:08;;;;;;;55.50;30.15;;;8.00;96.30;;;;;;5073502;28;20392;-82
2022/04/06 04:53:34;;;;;;;60.03;31.20;;;8.00;96.30;;;;;;5055941;28;20031;-82
2022/04/06 04:55:59;;;;;;;55.08;30.67;;;8.00;96.30;;;;;;5068109;28;20421;-82
2022/04/06 04:58:27;;;;;;;55.47;30.45;;;8.00;96.30;;;;;;5068946;28;20025;-82
2022/04/06 05:00:54;;;;;;;55.47;31.17;;;8.00;96.30;;;;;;5056916;28;20162;-82
2022/04/06 05:03:19;;;;;;;58.10;30.95;;;8.00;96.30;;;;;;5055944;28;20031;-82
2022/04/06 05:05:48;;;;;;;60.08;29.10;;;8.00;96.30;;;;;;5060369;28;20472;-82
2022/04/06 05:08:14;;;;;;;60.95;30.92;;;8.10;96.30;;;;;;5056891;28;20040;-82
2022/04/06 05:10:39;;;;;;;54.08;28.55;;;8.10;96.30;;;;;;5056259;28;20025;-82
2022/04/06 05:13:05;;;;;;;55.05;29.30;;;8.10;96.20;;;;;;5056237;28;20372;-82
2022/04/06 05:15:31;;;;;;;58.38;29.58;;;8.10;96.20;;;;;;5074726;28;20476;-82
2022/04/06 05:17:56;;;;;;;53.42;28.83;;;8.10;96.10;;;;;;5071341;28;20464;-82
2022/04/06 05:20:22;;;;;;;59.10;28.88;;;8.10;96.00;;;;;;5054772;28;20090;-82
2022/04/06 05:22:47;;;;;;;48.78;25.15;;;8.10;96.00;;;;;;5070097;28;20113;-82
2022/04/06 05:25:13;;;;;;;52.45;26.92;;;8.10;95.90;;;;;;5073067;28;20032;-82
2022/04/06 05:27:46;;;;;;;48.33;25.00;;;8.10;95.80;;;;;;5055767;28;20365;-82
2022/04/06 05:30:14;;;;;;;53.22;27.15;;;8.10;95.70;;;;;;5055801;28;20025;-82
2022/04/06 05:32:39;;;;;;;55.58;25.50;;;8.10;95.70;;;;;;5050785;28;20078;-82
2022/04/06 05:35:06;;;;;;;46.47;24.35;;;8.10;95.60;;;;;;5054828;28;20052;-82
2022/04/06 05:37:33;;;;;;;51.92;26.02;;;8.20;95.40;;;;;;5054863;28;20101;-82
2022/04/06 05:40:00;;;;;;;55.10;27.15;;;8.10;95.40;;;;;;5074408;28;20077;-82
2022/04/06 05:42:26;;;;;;;46.85;24.50;;;8.20;95.40;;;;;;5053924;28;20024;-81
2022/04/06 05:44:51;;;;;;;50.15;24.40;;;8.10;95.40;;;;;;5056001;28;20032;-82
2022/04/06 05:47:17;;;;;;;49.10;23.77;;;8.20;95.20;;;;;;5071954;28;20056;-82
2022/04/06 05:49:43;;;;;;;46.38;25.00;;;8.20;95.20;;;;;;5048161;28;20107;-82
2022/04/06 05:52:09;;;;;;;47.50;23.42;;;8.20;95.10;;;;;;5074650;28;20025;-82
2022/04/06 05:54:35;;;;;;;41.83;22.30;;;8.20;95.20;;;;;;5053914;28;20044;-82
2022/04/06 05:57:01;;;;;;;43.35;21.92;;;8.30;95.10;;;;;;5067313;28;20033;-82
2022/04/06 05:59:27;;;;;;;36.20;21.30;;;8.20;94.70;;;;;;5056182;28;20687;-82
2022/04/06 06:01:52;;;;;;;40.22;21.13;;;8.30;94.60;;;;;;5073637;28;20032;-82
2022/04/06 06:04:18;;;;;;;42.78;20.08;;;8.30;94.60;;;;;;5058471;28;20502;-82
2022/04/06 06:06:43;;;;;;;40.35;20.85;;;8.30;94.50;;;;;;5055395;28;20099;-82
2022/04/06 06:09:08;;;;;;;35.58;20.55;;;8.30;94.50;;;;;;5055731;28;20016;-82
2022/04/06 06:11:36;;;;;;;37.65;19.20;;;8.30;94.50;;;;;;5073783;28;20064;-82
2022/04/06 06:14:02;;;;;;;35.75;19.25;;;8.30;94.40;;;;;;5073438;28;20029;-82
2022/04/06 06:16:28;;;;;;;35.95;20.83;;;8.30;94.50;;;;;;5047299;28;20353;-82
2022/04/06 06:18:55;;;;;;;32.65;19.67;;;8.30;94.40;;;;;;5053683;28;20396;-82
2022/04/06 06:21:21;;;;;;;39.35;19.95;;;8.30;94.40;;;;;;5052314;28;20020;-82
2022/04/06 06:23:46;;;;;;;32.20;19.08;;;8.30;94.30;;;;;;5049271;28;20025;-82
2022/04/06 06:26:12;;;;;;;38.60;20.00;;;8.30;94.20;;;;;;5045384;28;20060;-82
2022/04/06 06:28:39;;;;;;;31.48;19.88;;;8.30;94.20;;;;;;5053409;28;20032;-82
2022/04/06 06:31:05;;;;;;;36.65;19.17;;;8.30;94.20;;;;;;5055499;28;20032;-82
2022/04/06 06:33:30;;;;;;;36.35;18.98;;;8.30;94.20;;;;;;5072055;28;20185;-82
2022/04/06 06:35:56;;;;;;;36.35;20.17;;;8.40;94.20;;;;;;5039558;28;20483;-82
2022/04/06 06:38:22;;;;;;;35.90;19.75;;;8.40;94.30;;;;;;5034722;28;20021;-82
2022/04/06 06:40:48;;;;;;;42.47;20.08;;;8.40;94.40;;;;;;5035662;28;20159;-82
2022/04/06 06:43:16;;;;;;;35.65;20.13;;;8.40;94.30;;;;;;5053768;28;20100;-82
2022/04/06 06:45:42;;;;;;;40.05;20.27;;;8.40;94.20;;;;;;5032977;28;20032;-82
2022/04/06 06:48:08;;;;;;;41.92;20.08;;;8.40;94.30;;;;;;5051852;28;20029;-82
2022/04/06 06:50:33;;;;;;;40.80;20.05;;;8.40;94.20;;;;;;5034227;28;20029;-82
2022/04/06 06:52:59;;;;;;;33.10;20.15;;;8.40;94.20;;;;;;5043801;28;20033;-82
2022/04/06 06:55:24;;;;;;;31.02;18.27;;;8.40;94.20;;;;;;5032978;28;20061;-82
2022/04/06 06:57:50;;;;;;;37.58;19.27;;;8.50;94.20;;;;;;5050047;28;20529;-82
2022/04/06 07:00:16;;;;;;;33.38;18.65;;;8.50;94.10;;;;;;5035308;28;20028;-82
2022/04/06 07:02:42;;;;;;;34.67;19.20;;;8.50;94.00;;;;;;5050308;28;20083;-83
2022/04/06 07:05:10;;;;;;;32.17;18.38;;;8.50;94.00;;;;;;5051297;28;20346;-82
2022/04/06 07:07:52;;;;;;;36.72;18.70;;;8.50;94.00;;;;;;5033229;28;20025;-82
2022/04/06 07:10:19;;;;;;;29.55;17.83;;;8.50;93.90;;;;;;5053033;28;20088;-82
2022/04/06 07:12:45;;;;;;;28.70;17.67;;;8.50;93.90;;;;;;5052955;28;20032;-82
2022/04/06 07:15:10;;;;;;;27.27;18.00;;;8.50;93.90;;;;;;5051828;28;20461;-82
2022/04/06 07:17:36;;;;;;;27.83;17.73;;;8.50;93.80;;;;;;5033143;28;20106;-82
2022/04/06 07:20:03;;;;;;;32.22;17.90;;;8.60;93.50;;;;;;5032409;28;20553;-82
2022/04/06 07:22:28;;;;;;;37.40;18.63;;;8.50;93.60;;;;;;5033968;28;20029;-83
2022/04/06 07:24:54;;;;;;;37.33;18.15;;;8.50;93.60;;;;;;5034648;28;20111;-82
2022/04/06 07:27:19;;;;;;;34.63;18.75;;;8.50;93.70;;;;;;5052148;28;20082;-82
2022/04/06 07:29:45;;;;;;;31.17;18.38;;;8.60;93.70;;;;;;5031068;28;20025;-82
2022/04/06 07:32:10;;;;;;;32.67;18.17;;;8.60;93.50;;;;;;5028279;28;20020;-82
2022/04/06 07:34:36;;;;;;;30.60;18.20;;;8.70;93.40;;;;;;5030634;28;20383;-82
2022/04/06 07:37:01;;;;;;;29.95;17.65;;;8.80;93.10;;;;;;5069888;28;20062;-82
2022/04/06 07:39:27;;;;;;;31.23;17.50;;;8.80;93.00;;;;;;5051685;28;20043;-83
2022/04/06 07:41:56;;;;;;;29.90;18.42;;;8.80;92.70;;;;;;5043406;28;20029;-83
2022/04/06 07:44:22;;;;;;;25.20;16.42;;;8.90;92.80;;;;;;5049857;28;20067;-82
2022/04/06 07:46:48;;;;;;;34.65;17.42;;;8.90;92.60;;;;;;5047737;28;20037;-82
2022/04/06 07:49:14;;;;;;;30.83;17.63;;;8.90;92.70;;;;;;5046337;28;20127;-82
2022/04/06 07:51:39;;;;;;;25.02;15.88;;;8.90;92.60;;;;;;5071544;28;20025;-82
2022/04/06 07:54:05;;;;;;;27.40;17.00;;;9.00;92.40;;;;;;5053506;28;20388;-82
2022/04/06 07:56:30;;;;;;;23.92;16.17;;;9.10;92.30;;;;;;5054477;28;20119;-82
2022/04/06 07:58:56;;;;;;;26.48;16.42;;;9.10;91.60;;;;;;5071998;28;20025;-82
2022/04/06 08:01:21;;;;;;;27.30;15.52;;;9.10;91.60;;;;;;5072899;28;20581;-82
2022/04/06 08:03:47;;;;;;;24.38;15.50;;;9.20;91.70;;;;;;5048186;28;20025;-82
2022/04/06 08:06:13;;;;;;;21.58;14.30;;;9.20;91.40;;;;;;5052479;28;20024;-82
2022/04/06 08:08:38;;;;;;;22.95;13.85;;;9.20;90.90;;;;;;5054510;28;20024;-83
2022/04/06 08:11:05;;;;;;;24.60;13.18;;;9.20;90.80;;;;;;5041252;28;20158;-82
2022/04/06 08:13:31;;;;;;;18.33;12.00;;;9.20;90.10;;;;;;5072248;28;20085;-82
2022/04/06 08:15:58;;;;;;;22.40;12.70;;;9.20;90.10;;;;;;5052668;28;20020;-82
2022/04/06 08:18:24;;;;;;;21.10;12.20;;;9.20;89.80;;;;;;5065491;28;20031;-82
2022/04/06 08:20:49;;;;;;;20.35;12.25;;;9.20;89.90;;;;;;5042655;28;20547;-82
2022/04/06 08:23:17;;;;;;;23.02;12.52;;;9.10;90.30;;;;;;5049043;28;20539;-82
2022/04/06 08:25:43;;;;;;;19.55;11.60;;;9.10;89.70;;;;;;5063105;28;20024;-82
2022/04/06 08:28:10;;;;;;;19.55;11.70;;;9.10;89.60;;;;;;5053474;28;20039;-82
2022/04/06 08:30:42;;;;;;;17.95;11.15;;;9.10;89.70;;;;;;5054014;28;20025;-81
2022/04/06 08:33:10;;;;;;;19.80;10.07;;;9.00;89.20;;;;;;5070486;28;20033;-82
2022/04/06 08:35:36;;;;;;;19.70;11.30;;;9.10;89.50;;;;;;5055959;28;20384;-82
2022/04/06 08:38:03;;;;;;;19.70;10.68;;;9.10;89.10;;;;;;5064468;28;20045;-82
2022/04/06 08:40:30;;;;;;;14.57;9.27;;;9.10;88.60;;;;;;5078263;28;20021;-82
2022/04/06 08:42:56;;;;;;;14.40;8.60;;;9.10;88.30;;;;;;5072622;28;20108;-82
2022/04/06 08:45:22;;;;;;;18.55;9.27;;;9.10;88.00;;;;;;5062473;28;20060;-83
2022/04/06 08:47:49;;;;;;;17.17;8.40;;;9.10;88.30;;;;;;5072110;28;20079;-82
2022/04/06 08:50:20;;;;;;;12.55;7.32;;;9.10;88.20;;;;;;5073832;28;20081;-82
2022/04/06 08:52:46;;;;;;;15.38;8.48;;;9.10;88.00;;;;;;5073048;28;20055;-82
2022/04/06 08:55:13;;;;;;;19.17;8.63;;;9.10;87.90;;;;;;5068574;28;20040;-82
2022/04/06 08:57:40;;;;;;;19.10;7.65;;;9.10;88.30;;;;;;5072826;28;20021;-82
2022/04/06 09:00:07;;;;;;;15.35;7.82;;;9.10;87.40;;;;;;5073335;28;20021;-82
2022/04/06 09:02:33;;;;;;;13.02;7.60;;;9.10;87.30;;;;;;5072543;28;20032;-82
2022/04/06 09:05:02;;;;;;;14.07;7.32;;;9.10;87.10;;;;;;5070727;28;20089;-82
2022/04/06 09:07:28;;;;;;;9.93;6.22;;;9.10;87.00;;;;;;5061927;28;20028;-82
2022/04/06 09:09:55;;;;;;;14.23;6.40;;;9.10;87.30;;;;;;5074563;28;20035;-82
2022/04/06 09:12:23;;;;;;;13.65;6.65;;;9.10;87.40;;;;;;5072352;28;20029;-82
2022/04/06 09:15:07;;;;;;;11.93;6.50;;;9.10;87.70;;;;;;5074295;28;20475;-82
2022/04/06 09:17:49;;;;;;;13.25;6.20;;;9.10;87.20;;;;;;5067734;28;20331;-82
2022/04/06 09:20:19;;;;;;;11.88;6.35;;;9.10;87.30;;;;;;5071643;28;20394;-82
2022/04/06 09:22:44;;;;;;;14.52;6.13;;;9.20;87.50;;;;;;5073553;28;20490;-82
2022/04/06 09:25:10;;;;;;;15.18;6.03;;;9.20;87.40;;;;;;5074056;28;20021;-82
2022/04/06 09:27:40;;;;;;;12.32;6.22;;;9.20;87.30;;;;;;5075306;28;20070;-82
2022/04/06 09:30:07;;;;;;;9.93;5.72;;;9.30;87.30;;;;;;5063505;28;20050;-83
2022/04/06 09:32:33;;;;;;;10.15;5.47;;;9.30;86.80;;;;;;5073088;28;20061;-82
2022/04/06 09:34:58;;;;;;;12.25;5.80;;;9.20;86.30;;;;;;5071576;28;20068;-82
2022/04/06 09:37:27;;;;;;;12.80;5.43;;;9.30;86.80;;;;;;5048378;28;20104;-82
2022/04/06 09:39:53;;;;;;;12.50;5.45;;;9.20;87.10;;;;;;5067817;28;20096;-82
2022/04/06 09:42:26;;;;;;;12.13;5.45;;;9.30;87.20;;;;;;5056405;28;20116;-82
2022/04/06 09:47:40;;;;;;;10.52;5.65;;;9.30;86.10;;;;;;5065011;28;20044;-82
2022/04/06 09:50:22;;;;;;;12.85;5.70;;;9.30;86.20;;;;;;5072005;28;20028;-82
2022/04/06 09:52:52;;;;;;;12.35;4.90;;;9.30;86.20;;;;;;5051588;28;20048;-82
2022/04/06 09:55:19;;;;;;;9.55;6.07;;;9.30;86.30;;;;;;5056276;28;20539;-82
2022/04/06 09:57:51;;;;;;;15.75;5.07;;;9.30;85.90;;;;;;5055367;28;20119;-82
2022/04/06 10:00:25;;;;;;;10.60;5.47;;;9.30;86.00;;;;;;5055941;28;20023;-82
2022/04/06 10:03:03;;;;;;;12.10;5.65;;;9.20;86.50;;;;;;5041489;28;20020;-82
2022/04/06 10:05:31;;;;;;;11.45;5.55;;;9.20;86.40;;;;;;5073267;28;20445;-82
2022/04/06 10:08:00;;;;;;;12.25;5.75;;;9.20;86.10;;;;;;5055863;28;20024;-82
2022/04/06 10:10:26;;;;;;;13.63;5.80;;;9.20;86.50;;;;;;5056029;28;20020;-82
2022/04/06 10:12:52;;;;;;;10.07;5.60;;;9.10;86.90;;;;;;5056350;28;20031;-82
2022/04/06 10:15:18;;;;;;;10.65;4.55;;;9.10;86.70;;;;;;5066256;28;20028;-82
2022/04/06 10:17:44;;;;;;;10.10;4.78;;;9.20;86.30;;;;;;5072467;28;20434;-82
2022/04/06 10:20:17;;;;;;;15.60;5.88;;;9.20;86.40;;;;;;5054630;28;20398;-82
2022/04/06 10:22:54;;;;;;;10.52;5.55;;;9.10;87.10;;;;;;5055603;28;20025;-82
2022/04/06 10:25:27;;;;;;;10.05;5.13;;;9.10;86.60;;;;;;5074220;28;20422;-82
2022/04/06 10:27:57;;;;;;;11.68;4.53;;;9.10;86.70;;;;;;5055602;28;20123;-82
2022/04/06 10:30:23;;;;;;;12.55;5.80;;;9.10;86.80;;;;;;5055399;28;20024;-82
2022/04/06 10:32:53;;;;;;;8.57;5.30;;;9.10;86.90;;;;;;5072791;28;20025;-82
2022/04/06 10:35:26;;;;;;;12.27;5.53;;;9.20;87.80;;;;;;5072151;28;20053;-82
2022/04/06 10:37:53;;;;;;;10.57;5.47;;;9.10;87.30;;;;;;5071565;28;20047;-82
2022/04/06 10:40:19;;;;;;;13.40;5.28;;;9.10;86.90;;;;;;5073859;28;20020;-82
2022/04/06 10:42:46;;;;;;;8.52;5.47;;;9.20;87.70;;;;;;5056202;28;20046;-82
2022/04/06 10:45:27;;;;;;;12.55;5.70;;;9.10;87.80;;;;;;5054359;28;20560;-82
2022/04/06 10:48:10;;;;;;;10.95;5.63;;;9.10;88.30;;;;;;5071446;28;20025;-82
2022/04/06 10:50:36;;;;;;;11.40;5.93;;;9.10;88.00;;;;;;5044875;28;20029;-82
2022/04/06 10:53:20;;;;;;;12.05;5.90;;;9.10;87.40;;;;;;5062843;28;20028;-82
2022/04/06 10:56:11;;;;;;;9.80;5.35;;;9.20;87.00;;;;;;5048181;28;20545;-82
2022/04/06 10:59:06;;;;;;;13.52;5.90;;;9.30;86.30;;;;;;5055879;28;20427;-82
2022/04/06 11:01:34;;;;;;;8.88;5.40;;;9.40;85.80;;;;;;5046238;28;20029;-82
2022/04/06 11:04:04;;;;;;;12.77;5.93;;;9.50;85.90;;;;;;5053853;28;20095;-82
2022/04/06 11:06:48;;;;;;;11.95;5.32;;;9.50;85.60;;;;;;5053988;28;20442;-82
2022/04/06 11:12:33;;;;;;;14.20;5.63;;;9.70;85.20;;;;;;5069487;28;20036;-82
2022/04/06 11:14:59;;;;;;;9.38;5.63;;;9.70;85.30;;;;;;5053431;28;20082;-82
2022/04/06 11:17:44;;;;;;;15.43;5.55;;;9.70;84.80;;;;;;5069364;28;20032;-82
2022/04/06 11:20:21;;;;;;;11.38;5.18;;;9.80;84.90;;;;;;5052829;28;20032;-82
2022/04/06 11:22:46;;;;;;;11.98;5.50;;;9.80;85.00;;;;;;5054569;28;20111;-82
2022/04/06 11:25:13;;;;;;;11.85;5.22;;;9.70;85.30;;;;;;5055215;28;20462;-82
2022/04/06 11:27:41;;;;;;;12.27;5.43;;;9.70;84.80;;;;;;5055542;28;20024;-82
2022/04/06 11:30:09;;;;;;;13.05;5.53;;;9.60;85.00;;;;;;5055388;28;20319;-82
2022/04/06 11:32:36;;;;;;;11.57;5.63;;;9.60;85.30;;;;;;5072946;28;20063;-82
2022/04/06 11:35:09;;;;;;;11.00;4.95;;;9.60;85.10;;;;;;5053720;28;20039;-82
2022/04/06 11:37:43;;;;;;;9.65;4.85;;;9.60;85.40;;;;;;5057295;28;20024;-82
2022/04/06 11:40:10;;;;;;;15.10;5.85;;;9.60;85.30;;;;;;5055237;28;20486;-82
2022/04/06 11:42:35;;;;;;;9.35;4.90;;;9.60;85.40;;;;;;5055038;28;20098;-82
2022/04/06 11:45:01;;;;;;;8.68;4.75;;;9.60;84.80;;;;;;5048439;28;20153;-82
2022/04/06 11:47:35;;;;;;;9.95;5.10;;;9.60;84.50;;;;;;5070135;28;20028;-82
2022/04/06 11:50:05;;;;;;;11.02;5.15;;;9.60;84.90;;;;;;5072138;28;20031;-82
2022/04/06 11:52:32;;;;;;;9.03;5.20;;;9.60;84.90;;;;;;5046258;28;20120;-82
2022/04/06 11:54:58;;;;;;;8.98;5.35;;;9.60;85.40;;;;;;5047324;28;20021;-82
2022/04/06 11:57:34;;;;;;;9.80;5.05;;;9.60;85.70;;;;;;5068553;28;20104;-82
2022/04/06 12:00:00;;;;;;;14.32;5.78;;;9.50;85.80;;;;;;5073578;28;20024;-82
2022/04/06 12:02:25;;;;;;;12.40;4.93;;;9.40;86.40;;;;;;5050541;28;20086;-81
2022/04/06 12:05:04;;;;;;;9.18;5.03;;;9.40;86.10;;;;;;5061209;28;20070;-81
2022/04/06 12:07:31;;;;;;;7.38;4.65;;;9.40;86.40;;;;;;5054676;28;20486;-81
2022/04/06 12:09:56;;;;;;;10.30;5.15;;;9.40;86.00;;;;;;5073366;28;20033;-82
2022/04/06 12:12:23;;;;;;;12.48;4.80;;;9.40;85.60;;;;;;5067350;28;20310;-82
2022/04/06 12:14:51;;;;;;;11.40;4.97;;;9.40;85.10;;;;;;5062928;28;20021;-82
2022/04/06 12:17:16;;;;;;;8.13;4.40;;;9.50;84.80;;;;;;5069953;28;20438;-82
2022/04/06 12:19:42;;;;;;;7.65;4.72;;;9.50;85.20;;;;;;5043296;28;20059;-82
2022/04/06 12:22:08;;;;;;;9.90;4.32;;;9.50;84.80;;;;;;5058214;28;20090;-82
2022/04/06 12:24:42;;;;;;;12.57;4.68;;;9.50;84.40;;;;;;5058234;28;20028;-82
2022/04/06 12:27:08;;;;;;;10.48;4.07;;;9.50;84.60;;;;;;5075537;28;20028;-81
2022/04/06 12:29:35;;;;;;;7.88;4.32;;;9.60;84.00;;;;;;5062566;28;20035;-82
2022/04/06 12:32:03;;;;;;;7.28;3.70;;;9.60;84.00;;;;;;5075438;28;20020;-82
2022/04/06 12:34:39;;;;;;;8.18;3.42;;;9.60;83.70;;;;;;5056532;28;20055;-82
2022/04/06 12:39:57;;;;;;;9.00;4.00;;;9.70;82.70;;;;;;5076714;28;20059;-82
2022/04/06 12:42:24;;;;;;;7.20;3.40;;;9.70;82.40;;;;;;5075991;28;20034;-82
2022/04/06 12:45:02;;;;;;;8.57;3.53;;;9.70;82.50;;;;;;5065215;28;20387;-82
2022/04/06 12:47:28;;;;;;;10.18;3.67;;;9.80;82.60;;;;;;5057685;28;20085;-82
2022/04/06 12:50:18;;;;;;;6.35;3.13;;;9.80;81.90;;;;;;5057021;28;20080;-81
2022/04/06 12:52:47;;;;;;;8.20;3.63;;;9.80;82.10;;;;;;5058349;28;20078;-82
2022/04/06 12:55:14;;;;;;;10.80;3.72;;;9.80;82.30;;;;;;5058992;28;20039;-82